sensor_id;sensor_type;location;lat;lon;timestamp;temperature;humidity
15143;DHT22;7672;50.834;6.286;2023-05-10T00:00:28;16.20;99.90
15143;DHT22;7672;50.834;6.286;2023-05-10T00:02:55;16.30;99.90
15143;DHT22;7672;50.834;6.286;2023-05-10T00:05:22;16.20;99.90
15143;DHT22;7672;50.834;6.286;2023-05-10T00:07:49;16.20;99.90
15143;DHT22;7672;50.834;6.286;2023-05-10T00:10:16;16.20;99.90
15143;DHT22;7672;50.834;6.286;2023-05-10T00:12:43;16.20;99.90
15143;DHT22;7672;50.834;6.286;2023-05-10T00:15:10;16.30;99.90
15143;DHT22;7672;50.834;6.286;2023-05-10T00:17:37;16.20;99.90
15143;DHT22;7672;50.834;6.286;2023-05-10T00:20:05;16.30;99.90
15143;DHT22;7672;50.834;6.286;2023-05-10T00:22:33;16.20;99.90
15143;DHT22;7672;50.834;6.286;2023-05-10T00:25:00;16.20;99.90
15143;DHT22;7672;50.834;6.286;2023-05-10T00:27:27;16.20;99.90
15143;DHT22;7672;50.834;6.286;2023-05-10T00:29:54;16.20;99.90
15143;DHT22;7672;50.834;6.286;2023-05-10T00:32:21;16.20;99.90
15143;DHT22;7672;50.834;6.286;2023-05-10T00:34:48;16.30;99.90
15143;DHT22;7672;50.834;6.286;2023-05-10T00:37:15;16.20;99.90
15143;DHT22;7672;50.834;6.286;2023-05-10T00:39:42;16.20;99.90
15143;DHT22;7672;50.834;6.286;2023-05-10T00:42:10;16.20;99.90
15143;DHT22;7672;50.834;6.286;2023-05-10T00:44:37;16.10;99.90
15143;DHT22;7672;50.834;6.286;2023-05-10T00:47:05;16.20;99.90
15143;DHT22;7672;50.834;6.286;2023-05-10T00:49:32;16.20;99.90
15143;DHT22;7672;50.834;6.286;2023-05-10T00:51:59;16.20;99.90
15143;DHT22;7672;50.834;6.286;2023-05-10T00:54:28;16.20;99.90
15143;DHT22;7672;50.834;6.286;2023-05-10T00:56:56;16.20;99.90
15143;DHT22;7672;50.834;6.286;2023-05-10T00:59:23;16.20;99.90
15143;DHT22;7672;50.834;6.286;2023-05-10T01:01:52;16.20;99.90
15143;DHT22;7672;50.834;6.286;2023-05-10T01:04:19;16.20;99.90
15143;DHT22;7672;50.834;6.286;2023-05-10T01:06:52;16.20;99.90
15143;DHT22;7672;50.834;6.286;2023-05-10T01:09:21;16.20;99.90
15143;DHT22;7672;50.834;6.286;2023-05-10T01:11:49;16.20;99.90
15143;DHT22;7672;50.834;6.286;2023-05-10T01:14:18;16.20;99.90
15143;DHT22;7672;50.834;6.286;2023-05-10T01:16:47;16.30;99.90
15143;DHT22;7672;50.834;6.286;2023-05-10T01:19:24;16.20;99.90
15143;DHT22;7672;50.834;6.286;2023-05-10T01:22:14;16.20;99.90
15143;DHT22;7672;50.834;6.286;2023-05-10T01:31:36;16.20;99.90
15143;DHT22;7672;50.834;6.286;2023-05-10T01:34:11;16.20;99.90
15143;DHT22;7672;50.834;6.286;2023-05-10T01:37:02;16.20;99.90
15143;DHT22;7672;50.834;6.286;2023-05-10T01:42:44;16.20;99.90
15143;DHT22;7672;50.834;6.286;2023-05-10T01:45:27;16.30;99.90
15143;DHT22;7672;50.834;6.286;2023-05-10T01:48:10;16.20;99.90
15143;DHT22;7672;50.834;6.286;2023-05-10T01:50:41;16.10;99.90
15143;DHT22;7672;50.834;6.286;2023-05-10T01:53:12;16.20;99.90
15143;DHT22;7672;50.834;6.286;2023-05-10T01:55:46;16.20;99.90
15143;DHT22;7672;50.834;6.286;2023-05-10T01:58:26;16.10;99.90
15143;DHT22;7672;50.834;6.286;2023-05-10T02:00:59;16.20;99.90
15143;DHT22;7672;50.834;6.286;2023-05-10T02:03:28;16.20;99.90
15143;DHT22;7672;50.834;6.286;2023-05-10T02:05:59;16.20;99.90
15143;DHT22;7672;50.834;6.286;2023-05-10T02:08:26;16.10;99.90
15143;DHT22;7672;50.834;6.286;2023-05-10T02:10:56;16.20;99.90
15143;DHT22;7672;50.834;6.286;2023-05-10T02:13:24;16.20;99.90
15143;DHT22;7672;50.834;6.286;2023-05-10T02:15:54;16.20;99.90
15143;DHT22;7672;50.834;6.286;2023-05-10T02:18:23;16.20;99.90
15143;DHT22;7672;50.834;6.286;2023-05-10T02:20:52;16.20;99.90
15143;DHT22;7672;50.834;6.286;2023-05-10T02:23:23;16.30;99.90
15143;DHT22;7672;50.834;6.286;2023-05-10T02:25:52;16.50;99.90
15143;DHT22;7672;50.834;6.286;2023-05-10T02:28:23;16.20;99.90
15143;DHT22;7672;50.834;6.286;2023-05-10T02:30:53;16.20;99.90
15143;DHT22;7672;50.834;6.286;2023-05-10T02:33:22;16.20;99.90
15143;DHT22;7672;50.834;6.286;2023-05-10T02:35:52;16.10;99.90
15143;DHT22;7672;50.834;6.286;2023-05-10T02:38:20;16.20;99.90
15143;DHT22;7672;50.834;6.286;2023-05-10T02:40:50;16.20;99.90
15143;DHT22;7672;50.834;6.286;2023-05-10T02:43:19;16.20;99.90
15143;DHT22;7672;50.834;6.286;2023-05-10T02:45:49;16.20;99.90
15143;DHT22;7672;50.834;6.286;2023-05-10T02:48:16;16.20;99.90
15143;DHT22;7672;50.834;6.286;2023-05-10T02:50:45;16.10;99.90
15143;DHT22;7672;50.834;6.286;2023-05-10T02:53:22;16.00;99.90
15143;DHT22;7672;50.834;6.286;2023-05-10T02:55:58;16.10;99.90
15143;DHT22;7672;50.834;6.286;2023-05-10T02:58:28;16.10;99.90
15143;DHT22;7672;50.834;6.286;2023-05-10T03:00:55;16.10;99.90
15143;DHT22;7672;50.834;6.286;2023-05-10T03:03:22;16.10;99.90
15143;DHT22;7672;50.834;6.286;2023-05-10T03:05:50;16.10;99.90
15143;DHT22;7672;50.834;6.286;2023-05-10T03:08:17;16.10;99.90
15143;DHT22;7672;50.834;6.286;2023-05-10T03:11:09;16.10;99.90
15143;DHT22;7672;50.834;6.286;2023-05-10T03:16:42;16.00;99.90
15143;DHT22;7672;50.834;6.286;2023-05-10T03:19:34;16.10;99.90
15143;DHT22;7672;50.834;6.286;2023-05-10T03:22:32;16.00;99.90
15143;DHT22;7672;50.834;6.286;2023-05-10T03:25:06;16.00;99.90
15143;DHT22;7672;50.834;6.286;2023-05-10T03:27:36;16.00;99.90
15143;DHT22;7672;50.834;6.286;2023-05-10T03:30:08;15.90;99.90
15143;DHT22;7672;50.834;6.286;2023-05-10T03:32:37;16.00;99.90
15143;DHT22;7672;50.834;6.286;2023-05-10T03:35:12;16.10;99.90
15143;DHT22;7672;50.834;6.286;2023-05-10T03:37:40;15.90;99.90
15143;DHT22;7672;50.834;6.286;2023-05-10T03:40:08;16.00;99.90
15143;DHT22;7672;50.834;6.286;2023-05-10T03:42:38;15.90;99.90
15143;DHT22;7672;50.834;6.286;2023-05-10T03:45:05;15.90;99.90
15143;DHT22;7672;50.834;6.286;2023-05-10T03:47:33;15.90;99.90
15143;DHT22;7672;50.834;6.286;2023-05-10T03:50:00;15.90;99.90
15143;DHT22;7672;50.834;6.286;2023-05-10T03:52:29;15.80;99.90
15143;DHT22;7672;50.834;6.286;2023-05-10T03:54:56;16.10;99.90
15143;DHT22;7672;50.834;6.286;2023-05-10T03:57:23;15.80;99.90
15143;DHT22;7672;50.834;6.286;2023-05-10T03:59:51;15.80;99.90
15143;DHT22;7672;50.834;6.286;2023-05-10T04:02:18;15.80;99.90
15143;DHT22;7672;50.834;6.286;2023-05-10T04:04:45;15.80;99.90
15143;DHT22;7672;50.834;6.286;2023-05-10T04:07:12;16.10;99.90
15143;DHT22;7672;50.834;6.286;2023-05-10T04:09:39;15.80;99.90
15143;DHT22;7672;50.834;6.286;2023-05-10T04:12:06;15.70;99.90
15143;DHT22;7672;50.834;6.286;2023-05-10T04:14:36;15.70;99.90
15143;DHT22;7672;50.834;6.286;2023-05-10T04:17:03;15.70;99.90
15143;DHT22;7672;50.834;6.286;2023-05-10T04:19:31;15.80;99.90
15143;DHT22;7672;50.834;6.286;2023-05-10T04:21:58;15.70;99.90
15143;DHT22;7672;50.834;6.286;2023-05-10T04:24:25;15.60;99.90
15143;DHT22;7672;50.834;6.286;2023-05-10T04:26:54;15.70;99.90
15143;DHT22;7672;50.834;6.286;2023-05-10T04:29:23;15.90;99.90
15143;DHT22;7672;50.834;6.286;2023-05-10T04:31:50;15.60;99.90
15143;DHT22;7672;50.834;6.286;2023-05-10T04:34:17;15.70;99.90
15143;DHT22;7672;50.834;6.286;2023-05-10T04:36:45;15.60;99.90
15143;DHT22;7672;50.834;6.286;2023-05-10T04:39:12;15.90;99.90
15143;DHT22;7672;50.834;6.286;2023-05-10T04:41:40;15.70;99.90
15143;DHT22;7672;50.834;6.286;2023-05-10T04:44:07;15.90;99.90
15143;DHT22;7672;50.834;6.286;2023-05-10T04:46:34;15.70;99.90
15143;DHT22;7672;50.834;6.286;2023-05-10T04:49:01;15.70;99.90
15143;DHT22;7672;50.834;6.286;2023-05-10T04:51:28;15.70;99.90
15143;DHT22;7672;50.834;6.286;2023-05-10T04:53:55;15.70;99.90
15143;DHT22;7672;50.834;6.286;2023-05-10T04:56:32;15.70;99.90
15143;DHT22;7672;50.834;6.286;2023-05-10T04:58:59;15.80;99.90
15143;DHT22;7672;50.834;6.286;2023-05-10T05:01:27;15.80;99.90
15143;DHT22;7672;50.834;6.286;2023-05-10T05:03:54;15.80;99.90
15143;DHT22;7672;50.834;6.286;2023-05-10T05:06:21;15.80;99.90
15143;DHT22;7672;50.834;6.286;2023-05-10T05:08:48;15.80;99.90
15143;DHT22;7672;50.834;6.286;2023-05-10T05:11:17;15.70;99.90
15143;DHT22;7672;50.834;6.286;2023-05-10T05:13:44;15.80;99.90
15143;DHT22;7672;50.834;6.286;2023-05-10T05:16:11;16.10;99.90
15143;DHT22;7672;50.834;6.286;2023-05-10T05:18:39;15.80;99.90
15143;DHT22;7672;50.834;6.286;2023-05-10T05:21:16;15.80;99.90
15143;DHT22;7672;50.834;6.286;2023-05-10T05:23:44;15.90;99.90
15143;DHT22;7672;50.834;6.286;2023-05-10T05:26:12;15.80;99.90
15143;DHT22;7672;50.834;6.286;2023-05-10T05:28:39;15.80;99.90
15143;DHT22;7672;50.834;6.286;2023-05-10T05:31:07;15.90;99.90
15143;DHT22;7672;50.834;6.286;2023-05-10T05:33:34;15.90;99.90
15143;DHT22;7672;50.834;6.286;2023-05-10T05:36:03;15.90;99.90
15143;DHT22;7672;50.834;6.286;2023-05-10T05:38:31;15.90;99.90
15143;DHT22;7672;50.834;6.286;2023-05-10T05:40:58;15.90;99.90
15143;DHT22;7672;50.834;6.286;2023-05-10T05:43:25;15.90;99.90
15143;DHT22;7672;50.834;6.286;2023-05-10T05:45:52;16.00;99.90
15143;DHT22;7672;50.834;6.286;2023-05-10T05:48:24;16.00;99.90
15143;DHT22;7672;50.834;6.286;2023-05-10T05:50:54;16.00;99.90
15143;DHT22;7672;50.834;6.286;2023-05-10T05:53:23;15.90;99.90
15143;DHT22;7672;50.834;6.286;2023-05-10T05:55:55;16.00;99.90
15143;DHT22;7672;50.834;6.286;2023-05-10T05:58:26;16.00;99.90
15143;DHT22;7672;50.834;6.286;2023-05-10T06:00:53;16.00;99.90
15143;DHT22;7672;50.834;6.286;2023-05-10T06:03:20;16.10;99.90
15143;DHT22;7672;50.834;6.286;2023-05-10T06:05:48;16.00;99.90
15143;DHT22;7672;50.834;6.286;2023-05-10T06:08:15;16.10;99.90
15143;DHT22;7672;50.834;6.286;2023-05-10T06:10:42;16.00;99.90
15143;DHT22;7672;50.834;6.286;2023-05-10T06:13:09;16.00;99.90
15143;DHT22;7672;50.834;6.286;2023-05-10T06:15:36;16.00;99.90
15143;DHT22;7672;50.834;6.286;2023-05-10T06:18:04;16.10;99.90
15143;DHT22;7672;50.834;6.286;2023-05-10T06:20:31;16.10;99.90
15143;DHT22;7672;50.834;6.286;2023-05-10T06:22:58;16.10;99.90
15143;DHT22;7672;50.834;6.286;2023-05-10T06:25:25;16.20;99.90
15143;DHT22;7672;50.834;6.286;2023-05-10T06:27:53;16.20;99.90
15143;DHT22;7672;50.834;6.286;2023-05-10T06:30:25;16.20;99.90
15143;DHT22;7672;50.834;6.286;2023-05-10T06:32:56;16.30;99.90
15143;DHT22;7672;50.834;6.286;2023-05-10T06:35:23;16.40;99.90
15143;DHT22;7672;50.834;6.286;2023-05-10T06:37:51;16.40;99.90
15143;DHT22;7672;50.834;6.286;2023-05-10T06:40:18;16.50;99.90
15143;DHT22;7672;50.834;6.286;2023-05-10T06:42:47;16.60;99.90
15143;DHT22;7672;50.834;6.286;2023-05-10T06:45:15;16.60;99.90
15143;DHT22;7672;50.834;6.286;2023-05-10T06:47:43;16.80;99.90
15143;DHT22;7672;50.834;6.286;2023-05-10T06:50:11;16.90;99.90
15143;DHT22;7672;50.834;6.286;2023-05-10T06:52:38;17.00;99.90
15143;DHT22;7672;50.834;6.286;2023-05-10T06:55:06;17.10;99.90
15143;DHT22;7672;50.834;6.286;2023-05-10T06:57:35;17.10;99.90
15143;DHT22;7672;50.834;6.286;2023-05-10T07:00:02;17.20;99.90
15143;DHT22;7672;50.834;6.286;2023-05-10T07:02:33;17.20;99.90
15143;DHT22;7672;50.834;6.286;2023-05-10T07:05:00;17.30;99.90
15143;DHT22;7672;50.834;6.286;2023-05-10T07:07:29;17.30;99.90
15143;DHT22;7672;50.834;6.286;2023-05-10T07:09:56;17.30;99.90
15143;DHT22;7672;50.834;6.286;2023-05-10T07:12:24;17.30;99.90
15143;DHT22;7672;50.834;6.286;2023-05-10T07:14:52;17.40;99.90
15143;DHT22;7672;50.834;6.286;2023-05-10T07:17:19;17.40;99.90
15143;DHT22;7672;50.834;6.286;2023-05-10T07:19:47;17.40;99.90
15143;DHT22;7672;50.834;6.286;2023-05-10T07:22:15;17.40;99.90
15143;DHT22;7672;50.834;6.286;2023-05-10T07:24:43;17.40;99.90
15143;DHT22;7672;50.834;6.286;2023-05-10T07:27:10;17.30;99.90
15143;DHT22;7672;50.834;6.286;2023-05-10T07:29:37;17.20;99.90
15143;DHT22;7672;50.834;6.286;2023-05-10T07:32:05;17.20;99.90
15143;DHT22;7672;50.834;6.286;2023-05-10T07:34:32;17.10;99.90
15143;DHT22;7672;50.834;6.286;2023-05-10T07:36:59;17.10;99.90
15143;DHT22;7672;50.834;6.286;2023-05-10T07:39:27;17.00;99.90
15143;DHT22;7672;50.834;6.286;2023-05-10T07:41:57;17.00;99.90
15143;DHT22;7672;50.834;6.286;2023-05-10T07:44:24;17.00;99.90
15143;DHT22;7672;50.834;6.286;2023-05-10T07:46:52;17.00;99.90
15143;DHT22;7672;50.834;6.286;2023-05-10T07:49:19;16.80;99.90
15143;DHT22;7672;50.834;6.286;2023-05-10T07:51:46;16.90;99.90
15143;DHT22;7672;50.834;6.286;2023-05-10T07:54:14;17.00;99.90
15143;DHT22;7672;50.834;6.286;2023-05-10T07:56:41;17.00;99.90
15143;DHT22;7672;50.834;6.286;2023-05-10T07:59:17;17.10;99.90
15143;DHT22;7672;50.834;6.286;2023-05-10T08:01:45;17.20;99.90
15143;DHT22;7672;50.834;6.286;2023-05-10T08:04:12;17.20;99.90
15143;DHT22;7672;50.834;6.286;2023-05-10T08:06:39;17.30;99.90
15143;DHT22;7672;50.834;6.286;2023-05-10T08:09:07;17.40;99.90
15143;DHT22;7672;50.834;6.286;2023-05-10T08:11:35;17.40;99.90
15143;DHT22;7672;50.834;6.286;2023-05-10T08:14:02;17.70;99.90
15143;DHT22;7672;50.834;6.286;2023-05-10T08:16:29;17.50;99.90
15143;DHT22;7672;50.834;6.286;2023-05-10T08:18:56;17.70;99.90
15143;DHT22;7672;50.834;6.286;2023-05-10T08:21:23;17.70;99.90
15143;DHT22;7672;50.834;6.286;2023-05-10T08:23:51;17.80;99.90
15143;DHT22;7672;50.834;6.286;2023-05-10T08:26:18;17.90;99.90
15143;DHT22;7672;50.834;6.286;2023-05-10T08:28:45;17.90;99.90
15143;DHT22;7672;50.834;6.286;2023-05-10T08:31:12;18.00;99.90
15143;DHT22;7672;50.834;6.286;2023-05-10T08:33:40;18.20;99.90
15143;DHT22;7672;50.834;6.286;2023-05-10T08:36:10;18.30;99.90
15143;DHT22;7672;50.834;6.286;2023-05-10T08:38:37;18.70;99.90
15143;DHT22;7672;50.834;6.286;2023-05-10T08:41:05;18.60;99.90
15143;DHT22;7672;50.834;6.286;2023-05-10T08:43:33;18.70;99.90
15143;DHT22;7672;50.834;6.286;2023-05-10T08:46:04;18.80;99.90
15143;DHT22;7672;50.834;6.286;2023-05-10T08:48:34;19.00;99.90
15143;DHT22;7672;50.834;6.286;2023-05-10T08:51:03;19.10;99.90
15143;DHT22;7672;50.834;6.286;2023-05-10T08:53:31;19.10;99.90
15143;DHT22;7672;50.834;6.286;2023-05-10T08:56:02;19.10;99.90
15143;DHT22;7672;50.834;6.286;2023-05-10T08:58:30;19.20;99.90
15143;DHT22;7672;50.834;6.286;2023-05-10T09:00:58;19.20;99.90
15143;DHT22;7672;50.834;6.286;2023-05-10T09:03:26;19.20;99.90
15143;DHT22;7672;50.834;6.286;2023-05-10T09:05:53;19.20;99.90
15143;DHT22;7672;50.834;6.286;2023-05-10T09:08:23;19.30;99.90
15143;DHT22;7672;50.834;6.286;2023-05-10T09:10:57;19.60;99.90
15143;DHT22;7672;50.834;6.286;2023-05-10T09:13:24;19.50;99.90
15143;DHT22;7672;50.834;6.286;2023-05-10T09:15:53;19.70;99.90
15143;DHT22;7672;50.834;6.286;2023-05-10T09:18:20;19.70;99.90
15143;DHT22;7672;50.834;6.286;2023-05-10T09:20:48;19.80;99.90
15143;DHT22;7672;50.834;6.286;2023-05-10T09:23:16;19.80;99.90
15143;DHT22;7672;50.834;6.286;2023-05-10T09:25:43;19.80;99.90
15143;DHT22;7672;50.834;6.286;2023-05-10T09:28:10;19.80;99.90
15143;DHT22;7672;50.834;6.286;2023-05-10T09:30:38;19.80;99.90
15143;DHT22;7672;50.834;6.286;2023-05-10T09:33:05;19.90;99.90
15143;DHT22;7672;50.834;6.286;2023-05-10T09:35:33;20.00;99.90
15143;DHT22;7672;50.834;6.286;2023-05-10T09:38:04;19.90;99.90
15143;DHT22;7672;50.834;6.286;2023-05-10T09:40:31;19.90;99.90
15143;DHT22;7672;50.834;6.286;2023-05-10T09:43:10;19.90;99.90
15143;DHT22;7672;50.834;6.286;2023-05-10T09:45:37;19.90;99.90
15143;DHT22;7672;50.834;6.286;2023-05-10T09:48:05;19.90;99.90
15143;DHT22;7672;50.834;6.286;2023-05-10T09:50:33;19.80;99.90
15143;DHT22;7672;50.834;6.286;2023-05-10T09:53:02;19.80;99.90
15143;DHT22;7672;50.834;6.286;2023-05-10T09:55:39;19.80;99.90
15143;DHT22;7672;50.834;6.286;2023-05-10T09:58:07;19.70;99.90
15143;DHT22;7672;50.834;6.286;2023-05-10T10:00:39;19.80;99.90
15143;DHT22;7672;50.834;6.286;2023-05-10T10:03:13;19.70;99.90
15143;DHT22;7672;50.834;6.286;2023-05-10T10:05:42;19.70;99.90
15143;DHT22;7672;50.834;6.286;2023-05-10T10:08:11;19.60;99.90
15143;DHT22;7672;50.834;6.286;2023-05-10T10:10:39;19.70;99.90
15143;DHT22;7672;50.834;6.286;2023-05-10T10:13:12;19.60;99.90
15143;DHT22;7672;50.834;6.286;2023-05-10T10:15:41;19.60;99.90
15143;DHT22;7672;50.834;6.286;2023-05-10T10:18:13;19.50;99.90
15143;DHT22;7672;50.834;6.286;2023-05-10T10:20:42;19.50;99.90
15143;DHT22;7672;50.834;6.286;2023-05-10T10:23:09;19.40;99.90
15143;DHT22;7672;50.834;6.286;2023-05-10T10:25:37;19.20;99.90
15143;DHT22;7672;50.834;6.286;2023-05-10T10:28:21;19.30;99.90
15143;DHT22;7672;50.834;6.286;2023-05-10T10:30:55;19.20;99.90
15143;DHT22;7672;50.834;6.286;2023-05-10T10:34:17;19.20;99.90
15143;DHT22;7672;50.834;6.286;2023-05-10T10:36:26;19.20;99.90
15143;DHT22;7672;50.834;6.286;2023-05-10T10:39:00;19.20;99.90
15143;DHT22;7672;50.834;6.286;2023-05-10T10:41:36;19.20;99.90
15143;DHT22;7672;50.834;6.286;2023-05-10T10:46:59;19.30;99.90
15143;DHT22;7672;50.834;6.286;2023-05-10T10:49:27;19.40;99.90
15143;DHT22;7672;50.834;6.286;2023-05-10T10:52:21;19.50;99.90
15143;DHT22;7672;50.834;6.286;2023-05-10T10:55:13;19.50;99.90
15143;DHT22;7672;50.834;6.286;2023-05-10T10:57:57;19.60;99.90
15143;DHT22;7672;50.834;6.286;2023-05-10T11:00:31;19.70;99.90
15143;DHT22;7672;50.834;6.286;2023-05-10T11:03:10;19.80;99.90
15143;DHT22;7672;50.834;6.286;2023-05-10T11:05:46;19.90;99.90
15143;DHT22;7672;50.834;6.286;2023-05-10T11:08:28;20.10;99.90
15143;DHT22;7672;50.834;6.286;2023-05-10T11:19:03;20.50;99.90
15143;DHT22;7672;50.834;6.286;2023-05-10T11:21:45;20.60;99.90
15143;DHT22;7672;50.834;6.286;2023-05-10T11:24:15;20.70;99.90
15143;DHT22;7672;50.834;6.286;2023-05-10T11:26:44;20.90;99.90
15143;DHT22;7672;50.834;6.286;2023-05-10T11:29:13;21.20;99.90
15143;DHT22;7672;50.834;6.286;2023-05-10T11:31:44;21.50;99.90
15143;DHT22;7672;50.834;6.286;2023-05-10T11:34:22;21.70;99.90
15143;DHT22;7672;50.834;6.286;2023-05-10T11:37:01;22.00;99.90
15143;DHT22;7672;50.834;6.286;2023-05-10T11:39:30;22.30;99.90
15143;DHT22;7672;50.834;6.286;2023-05-10T11:41:58;22.60;99.90
15143;DHT22;7672;50.834;6.286;2023-05-10T11:44:30;22.90;99.90
15143;DHT22;7672;50.834;6.286;2023-05-10T11:47:01;23.00;99.90
15143;DHT22;7672;50.834;6.286;2023-05-10T11:49:29;23.20;99.90
15143;DHT22;7672;50.834;6.286;2023-05-10T11:52:08;23.30;99.90
15143;DHT22;7672;50.834;6.286;2023-05-10T11:54:37;23.50;99.90
15143;DHT22;7672;50.834;6.286;2023-05-10T11:57:12;23.60;99.90
15143;DHT22;7672;50.834;6.286;2023-05-10T11:59:39;23.80;99.90
15143;DHT22;7672;50.834;6.286;2023-05-10T12:02:10;23.90;99.90
15143;DHT22;7672;50.834;6.286;2023-05-10T12:04:37;24.10;99.90
15143;DHT22;7672;50.834;6.286;2023-05-10T12:07:04;24.20;99.90
15143;DHT22;7672;50.834;6.286;2023-05-10T12:09:31;24.20;99.90
15143;DHT22;7672;50.834;6.286;2023-05-10T12:12:10;24.30;99.90
15143;DHT22;7672;50.834;6.286;2023-05-10T12:14:42;24.40;99.90
15143;DHT22;7672;50.834;6.286;2023-05-10T12:17:12;24.40;99.90
15143;DHT22;7672;50.834;6.286;2023-05-10T12:19:40;24.40;99.90
15143;DHT22;7672;50.834;6.286;2023-05-10T12:22:07;24.50;99.90
15143;DHT22;7672;50.834;6.286;2023-05-10T12:24:37;24.50;99.90
15143;DHT22;7672;50.834;6.286;2023-05-10T12:27:05;24.50;99.90
15143;DHT22;7672;50.834;6.286;2023-05-10T12:29:35;24.50;99.90
15143;DHT22;7672;50.834;6.286;2023-05-10T12:32:02;24.50;99.90
15143;DHT22;7672;50.834;6.286;2023-05-10T12:34:31;24.60;99.90
15143;DHT22;7672;50.834;6.286;2023-05-10T12:37:05;24.60;99.90
15143;DHT22;7672;50.834;6.286;2023-05-10T12:39:42;24.60;99.90
15143;DHT22;7672;50.834;6.286;2023-05-10T12:42:10;24.50;99.90
15143;DHT22;7672;50.834;6.286;2023-05-10T12:44:38;24.50;99.90
15143;DHT22;7672;50.834;6.286;2023-05-10T12:47:06;24.40;99.90
15143;DHT22;7672;50.834;6.286;2023-05-10T12:49:33;24.30;99.90
15143;DHT22;7672;50.834;6.286;2023-05-10T12:52:01;24.30;99.90
15143;DHT22;7672;50.834;6.286;2023-05-10T12:54:28;24.20;99.90
15143;DHT22;7672;50.834;6.286;2023-05-10T12:56:55;24.10;99.90
15143;DHT22;7672;50.834;6.286;2023-05-10T12:59:22;24.00;99.90
15143;DHT22;7672;50.834;6.286;2023-05-10T13:01:49;23.90;99.90
15143;DHT22;7672;50.834;6.286;2023-05-10T13:04:16;23.80;99.90
15143;DHT22;7672;50.834;6.286;2023-05-10T13:06:43;23.70;99.90
15143;DHT22;7672;50.834;6.286;2023-05-10T13:09:11;23.60;99.90
15143;DHT22;7672;50.834;6.286;2023-05-10T13:11:38;23.50;99.90
15143;DHT22;7672;50.834;6.286;2023-05-10T13:14:05;23.50;99.90
15143;DHT22;7672;50.834;6.286;2023-05-10T13:16:32;23.40;99.90
15143;DHT22;7672;50.834;6.286;2023-05-10T13:18:59;23.40;99.90
15143;DHT22;7672;50.834;6.286;2023-05-10T13:21:26;23.30;99.90
15143;DHT22;7672;50.834;6.286;2023-05-10T13:23:54;23.40;99.90
15143;DHT22;7672;50.834;6.286;2023-05-10T13:26:22;23.40;99.90
15143;DHT22;7672;50.834;6.286;2023-05-10T13:28:49;23.40;99.90
15143;DHT22;7672;50.834;6.286;2023-05-10T13:31:18;23.50;99.90
15143;DHT22;7672;50.834;6.286;2023-05-10T13:33:45;23.50;99.90
15143;DHT22;7672;50.834;6.286;2023-05-10T13:36:12;23.50;99.90
15143;DHT22;7672;50.834;6.286;2023-05-10T13:38:39;23.60;99.90
15143;DHT22;7672;50.834;6.286;2023-05-10T13:41:06;23.60;99.90
15143;DHT22;7672;50.834;6.286;2023-05-10T13:43:33;23.70;99.90
15143;DHT22;7672;50.834;6.286;2023-05-10T13:46:02;23.70;99.90
15143;DHT22;7672;50.834;6.286;2023-05-10T13:48:29;23.80;99.90
15143;DHT22;7672;50.834;6.286;2023-05-10T13:50:56;23.90;99.90
15143;DHT22;7672;50.834;6.286;2023-05-10T13:53:23;23.90;99.90
15143;DHT22;7672;50.834;6.286;2023-05-10T13:55:50;23.90;99.90
15143;DHT22;7672;50.834;6.286;2023-05-10T13:58:17;23.90;99.90
15143;DHT22;7672;50.834;6.286;2023-05-10T14:00:44;23.90;99.90
15143;DHT22;7672;50.834;6.286;2023-05-10T14:03:11;23.90;99.90
15143;DHT22;7672;50.834;6.286;2023-05-10T14:05:38;23.80;99.90
15143;DHT22;7672;50.834;6.286;2023-05-10T14:08:06;23.80;99.90
15143;DHT22;7672;50.834;6.286;2023-05-10T14:10:34;23.70;99.90
15143;DHT22;7672;50.834;6.286;2023-05-10T14:13:01;23.60;99.90
15143;DHT22;7672;50.834;6.286;2023-05-10T14:15:28;23.50;99.90
15143;DHT22;7672;50.834;6.286;2023-05-10T14:17:55;23.40;99.90
15143;DHT22;7672;50.834;6.286;2023-05-10T14:20:22;23.20;99.90
15143;DHT22;7672;50.834;6.286;2023-05-10T14:22:49;23.10;99.90
15143;DHT22;7672;50.834;6.286;2023-05-10T14:25:16;22.90;99.90
15143;DHT22;7672;50.834;6.286;2023-05-10T14:27:43;22.80;99.90
15143;DHT22;7672;50.834;6.286;2023-05-10T14:30:11;22.60;99.90
15143;DHT22;7672;50.834;6.286;2023-05-10T14:32:38;22.40;99.90
15143;DHT22;7672;50.834;6.286;2023-05-10T14:35:05;22.30;99.90
15143;DHT22;7672;50.834;6.286;2023-05-10T14:37:33;22.20;99.90
15143;DHT22;7672;50.834;6.286;2023-05-10T14:40:01;22.10;99.90
15143;DHT22;7672;50.834;6.286;2023-05-10T14:42:31;22.00;99.90
15143;DHT22;7672;50.834;6.286;2023-05-10T14:44:58;21.90;99.90
15143;DHT22;7672;50.834;6.286;2023-05-10T14:47:25;21.80;99.90
15143;DHT22;7672;50.834;6.286;2023-05-10T14:49:52;21.80;99.90
15143;DHT22;7672;50.834;6.286;2023-05-10T14:52:19;21.80;99.90
15143;DHT22;7672;50.834;6.286;2023-05-10T14:54:45;21.80;99.90
15143;DHT22;7672;50.834;6.286;2023-05-10T14:57:13;21.90;99.90
15143;DHT22;7672;50.834;6.286;2023-05-10T14:59:40;21.90;99.90
15143;DHT22;7672;50.834;6.286;2023-05-10T15:02:07;21.90;99.90
15143;DHT22;7672;50.834;6.286;2023-05-10T15:04:35;21.80;99.90
15143;DHT22;7672;50.834;6.286;2023-05-10T15:07:03;21.80;99.90
15143;DHT22;7672;50.834;6.286;2023-05-10T15:09:29;21.70;99.90
15143;DHT22;7672;50.834;6.286;2023-05-10T15:11:57;21.70;99.90
15143;DHT22;7672;50.834;6.286;2023-05-10T15:14:24;21.70;99.90
15143;DHT22;7672;50.834;6.286;2023-05-10T15:16:51;21.70;99.90
15143;DHT22;7672;50.834;6.286;2023-05-10T15:19:19;21.60;99.90
15143;DHT22;7672;50.834;6.286;2023-05-10T15:21:46;21.60;99.90
15143;DHT22;7672;50.834;6.286;2023-05-10T15:24:13;21.50;99.90
15143;DHT22;7672;50.834;6.286;2023-05-10T15:26:41;21.50;99.90
15143;DHT22;7672;50.834;6.286;2023-05-10T15:29:08;21.40;99.90
15143;DHT22;7672;50.834;6.286;2023-05-10T15:31:35;21.30;99.90
15143;DHT22;7672;50.834;6.286;2023-05-10T15:34:02;21.30;99.90
15143;DHT22;7672;50.834;6.286;2023-05-10T15:36:31;21.20;99.90
15143;DHT22;7672;50.834;6.286;2023-05-10T15:38:58;21.20;99.90
15143;DHT22;7672;50.834;6.286;2023-05-10T15:41:25;21.10;99.90
15143;DHT22;7672;50.834;6.286;2023-05-10T15:43:53;21.00;99.90
15143;DHT22;7672;50.834;6.286;2023-05-10T15:46:20;21.00;99.90
15143;DHT22;7672;50.834;6.286;2023-05-10T15:48:47;20.80;99.90
15143;DHT22;7672;50.834;6.286;2023-05-10T15:51:14;20.90;99.90
15143;DHT22;7672;50.834;6.286;2023-05-10T15:53:41;20.80;99.90
15143;DHT22;7672;50.834;6.286;2023-05-10T15:56:26;20.70;99.90
15143;DHT22;7672;50.834;6.286;2023-05-10T15:58:53;20.70;99.90
15143;DHT22;7672;50.834;6.286;2023-05-10T16:01:20;20.70;99.90
15143;DHT22;7672;50.834;6.286;2023-05-10T16:03:47;20.60;99.90
15143;DHT22;7672;50.834;6.286;2023-05-10T16:06:14;20.50;99.90
15143;DHT22;7672;50.834;6.286;2023-05-10T16:08:42;20.60;99.90
15143;DHT22;7672;50.834;6.286;2023-05-10T16:11:09;20.50;99.90
15143;DHT22;7672;50.834;6.286;2023-05-10T16:13:36;20.40;99.90
15143;DHT22;7672;50.834;6.286;2023-05-10T16:16:03;20.40;99.90
15143;DHT22;7672;50.834;6.286;2023-05-10T16:18:31;20.20;99.90
15143;DHT22;7672;50.834;6.286;2023-05-10T16:20:58;20.10;99.90